Time;durP1;ratioP1;P1;durP2;ratioP2;P2;SDS_P1;SDS_P2;PMS_P1;PMS_P2;Temp;Humidity;BMP_temperature;BMP_pressure;BME280_temperature;BME280_humidity;BME280_pressure;Samples;Min_cycle;Max_cycle;Signal;HPM_P1;HPM_P2
2022/04/08 00:01:54;;;;;;;19.37;8.37;;;;;;;7.86;90.47;98612.34;1469264;89;21331;-80
2022/04/08 00:04:21;;;;;;;16.73;7.60;;;;;;;7.89;90.46;98615.95;1439287;89;21383;-79
2022/04/08 00:06:47;;;;;;;20.57;7.73;;;;;;;7.91;90.43;98623.66;1428647;89;21414;-79
2022/04/08 00:09:14;;;;;;;11.07;6.70;;;;;;;7.91;91.39;98631.56;1425821;90;22284;-79
2022/04/08 00:11:41;;;;;;;12.17;7.13;;;;;;;7.92;91.26;98624.00;1424552;91;21294;-80
2022/04/08 00:14:08;;;;;;;10.63;7.87;;;;;;;7.97;90.58;98620.36;1439879;90;21340;-80
2022/04/08 00:16:37;;;;;;;16.30;8.00;;;;;;;7.99;90.95;98617.02;1433322;89;22331;-80
2022/04/08 00:19:04;;;;;;;16.37;9.37;;;;;;;8.02;90.72;98607.45;1448580;89;21309;-80
2022/04/08 00:21:32;;;;;;;20.90;8.87;;;;;;;8.03;91.18;98594.62;1456143;89;21309;-80
2022/04/08 00:23:59;;;;;;;13.13;8.70;;;;;;;8.06;91.14;98606.13;1453199;89;21427;-80
2022/04/08 00:26:25;;;;;;;14.03;7.23;;;;;;;8.08;91.72;98601.98;1452446;89;21361;-80
2022/04/08 00:28:52;;;;;;;12.90;7.57;;;;;;;8.07;91.92;98605.12;1450649;89;22358;-79
2022/04/08 00:31:19;;;;;;;13.43;7.50;;;;;;;8.11;91.47;98602.47;1427747;89;21450;-79
2022/04/08 00:33:46;;;;;;;10.90;7.03;;;;;;;8.13;91.43;98609.68;1430030;90;21398;-80
2022/04/08 00:36:13;;;;;;;15.83;8.33;;;;;;;8.14;91.70;98601.27;1432311;90;21583;-80
2022/04/08 00:38:40;;;;;;;9.83;6.93;;;;;;;8.14;91.72;98590.26;1426930;90;21486;-80
2022/04/08 00:41:07;;;;;;;15.73;7.43;;;;;;;8.13;91.83;98578.56;1427795;90;21375;-81
2022/04/08 00:43:38;;;;;;;12.57;7.70;;;;;;;8.14;91.81;98569.17;1435404;90;21368;-80
2022/04/08 00:46:11;;;;;;;14.73;8.23;;;;;;;8.16;91.74;98574.76;1433030;90;21353;-79
2022/04/08 00:48:38;;;;;;;9.77;6.77;;;;;;;8.18;91.54;98582.81;1426442;90;21369;-79
2022/04/08 00:51:07;;;;;;;13.50;8.00;;;;;;;8.18;91.45;98580.68;1434452;90;21511;-80
2022/04/08 00:53:38;;;;;;;12.37;6.87;;;;;;;8.19;91.69;98578.35;1440262;90;21390;-80
2022/04/08 00:56:06;;;;;;;9.10;6.80;;;;;;;8.22;91.22;98570.09;1429484;90;21428;-80
2022/04/08 00:58:36;;;;;;;10.63;7.67;;;;;;;8.20;91.79;98568.13;1428294;90;21464;-79
2022/04/08 01:01:03;;;;;;;14.67;7.47;;;;;;;8.22;91.59;98555.59;1426128;90;22351;-79
2022/04/08 01:03:30;;;;;;;12.03;7.10;;;;;;;8.24;91.57;98547.02;1436841;90;21421;-80
2022/04/08 01:05:58;;;;;;;14.27;6.70;;;;;;;8.25;91.38;98561.33;1438587;90;22329;-79
2022/04/08 01:08:25;;;;;;;12.20;7.17;;;;;;;8.24;91.78;98560.20;1439699;90;21339;-80
2022/04/08 01:10:53;;;;;;;10.50;8.03;;;;;;;8.27;91.12;98561.97;1436235;90;21591;-80
2022/04/08 01:13:21;;;;;;;13.70;7.37;;;;;;;8.27;91.78;98569.88;1431691;90;22433;-80
2022/04/08 01:15:48;;;;;;;11.53;6.57;;;;;;;8.29;91.63;98572.36;1428875;90;21420;-80
2022/04/08 01:18:15;;;;;;;11.47;7.90;;;;;;;8.33;91.13;98563.08;1441156;90;21452;-80
2022/04/08 01:20:42;;;;;;;13.73;7.20;;;;;;;8.35;91.38;98571.64;1435767;91;21412;-80
2022/04/08 01:23:10;;;;;;;11.77;8.33;;;;;;;8.37;91.19;98574.89;1443664;90;22876;-80
2022/04/08 01:25:37;;;;;;;13.90;7.77;;;;;;;8.38;91.22;98595.00;1427331;90;21420;-80
2022/04/08 01:28:04;;;;;;;12.77;7.90;;;;;;;8.40;91.17;98585.14;1427878;90;21519;-80
2022/04/08 01:30:31;;;;;;;13.70;7.73;;;;;;;8.42;91.23;98591.03;1431980;90;21391;-80
2022/04/08 01:32:58;;;;;;;11.07;6.97;;;;;;;8.45;91.20;98602.53;1440482;90;21420;-81
2022/04/08 01:35:25;;;;;;;14.40;7.97;;;;;;;8.45;91.42;98606.48;1446419;90;21317;-80
2022/04/08 01:37:52;;;;;;;10.83;7.40;;;;;;;8.51;90.83;98612.36;1447381;90;22469;-80
2022/04/08 01:40:19;;;;;;;11.30;8.20;;;;;;;8.50;90.81;98608.60;1427325;90;21339;-80
2022/04/08 01:42:46;;;;;;;11.20;6.57;;;;;;;8.54;90.34;98594.05;1424745;90;21406;-81
2022/04/08 01:45:14;;;;;;;13.10;8.10;;;;;;;8.53;90.59;98587.97;1439952;90;22389;-80
2022/04/08 01:47:41;;;;;;;14.00;8.47;;;;;;;8.54;90.34;98593.55;1447272;90;21325;-80
2022/04/08 01:50:09;;;;;;;14.17;8.23;;;;;;;8.56;90.25;98592.88;1427068;90;21405;-80
2022/04/08 01:52:36;;;;;;;16.73;9.50;;;;;;;8.57;90.23;98595.86;1419857;90;21384;-80
2022/04/08 01:55:05;;;;;;;12.10;8.37;;;;;;;8.59;90.13;98591.20;1426994;90;21525;-81
2022/04/08 01:57:32;;;;;;;13.27;7.93;;;;;;;8.57;90.57;98590.58;1424502;90;22537;-81
2022/04/08 01:59:59;;;;;;;12.70;7.90;;;;;;;8.61;90.38;98584.95;1411869;91;21584;-80
2022/04/08 02:02:25;;;;;;;13.27;8.20;;;;;;;8.63;90.37;98610.61;1432945;90;22441;-80
2022/04/08 02:04:52;;;;;;;10.37;8.57;;;;;;;8.63;90.62;98615.89;1436941;90;21390;-80
2022/04/08 02:07:19;;;;;;;13.60;8.40;;;;;;;8.67;90.34;98610.09;1428981;90;21383;-80
2022/04/08 02:09:46;;;;;;;15.77;8.80;;;;;;;8.68;90.18;98609.58;1428684;90;21427;-81
2022/04/08 02:12:13;;;;;;;16.77;9.07;;;;;;;8.66;90.74;98597.91;1440284;90;23177;-80
2022/04/08 02:14:40;;;;;;;13.17;9.23;;;;;;;8.70;90.26;98585.18;1434483;90;21823;-80
2022/04/08 02:17:06;;;;;;;11.70;8.40;;;;;;;8.69;90.63;98579.09;1451943;90;21467;-81
2022/04/08 02:19:33;;;;;;;12.10;8.37;;;;;;;8.69;90.90;98569.02;1437124;90;21449;-81
2022/04/08 02:22:01;;;;;;;11.07;8.90;;;;;;;8.68;90.98;98542.33;1425844;90;21390;-80
2022/04/08 02:24:30;;;;;;;13.83;9.27;;;;;;;8.70;90.73;98546.94;1437170;90;21354;-82
2022/04/08 02:26:57;;;;;;;14.47;8.87;;;;;;;8.68;91.17;98550.25;1435509;90;21427;-83
2022/04/08 02:29:24;;;;;;;16.43;8.90;;;;;;;8.65;91.37;98563.80;1430061;90;21309;-81
2022/04/08 02:31:51;;;;;;;14.53;8.33;;;;;;;8.63;91.45;98563.99;1422681;90;21509;-80
2022/04/08 02:34:18;;;;;;;11.50;9.27;;;;;;;8.65;91.21;98567.75;1433128;90;22365;-81
2022/04/08 02:36:45;;;;;;;15.50;8.53;;;;;;;8.66;91.19;98569.38;1443013;90;21397;-82
2022/04/08 02:39:12;;;;;;;14.50;8.93;;;;;;;8.66;91.28;98586.52;1446332;90;21377;-81
2022/04/08 02:41:39;;;;;;;14.50;9.53;;;;;;;8.66;91.35;98581.24;1441816;90;21339;-81
2022/04/08 02:44:08;;;;;;;16.77;9.33;;;;;;;8.69;90.92;98587.48;1419667;90;21435;-81
2022/04/08 02:46:35;;;;;;;14.33;8.53;;;;;;;8.69;91.14;98582.20;1434203;90;21383;-80
2022/04/08 02:49:02;;;;;;;17.00;8.83;;;;;;;8.71;91.07;98577.58;1444073;90;21325;-79
2022/04/08 02:51:29;;;;;;;11.90;8.90;;;;;;;8.72;90.77;98558.13;1441558;90;22322;-80
2022/04/08 02:53:56;;;;;;;13.50;9.13;;;;;;;8.74;90.53;98539.78;1424362;91;21546;-79
2022/04/08 02:56:23;;;;;;;10.50;7.73;;;;;;;8.75;90.69;98518.20;1424941;90;21471;-80
2022/04/08 02:58:50;;;;;;;13.10;8.37;;;;;;;8.79;90.25;98511.55;1433126;90;21383;-81
2022/04/08 03:01:17;;;;;;;11.37;8.37;;;;;;;8.81;90.21;98478.72;1440335;90;21399;-82
2022/04/08 03:03:44;;;;;;;14.07;9.00;;;;;;;8.80;90.13;98502.15;1423554;90;22329;-81
2022/04/08 03:06:11;;;;;;;12.10;7.77;;;;;;;8.83;89.72;98534.42;1422667;90;21339;-82
2022/04/08 03:08:37;;;;;;;13.03;8.50;;;;;;;8.85;89.44;98545.61;1430463;91;23523;-81
2022/04/08 03:11:05;;;;;;;11.17;7.93;;;;;;;8.89;89.05;98533.20;1443411;91;21390;-81
2022/04/08 03:13:33;;;;;;;15.50;8.97;;;;;;;8.91;88.85;98529.05;1427386;90;21383;-80
2022/04/08 03:16:01;;;;;;;11.83;7.83;;;;;;;8.93;88.51;98529.19;1430949;90;21405;-81
2022/04/08 03:18:28;;;;;;;10.33;7.80;;;;;;;8.94;88.21;98533.45;1438471;90;23226;-81
2022/04/08 03:20:55;;;;;;;11.63;8.40;;;;;;;8.94;87.95;98545.33;1432193;90;21413;-81
2022/04/08 03:23:22;;;;;;;10.90;8.43;;;;;;;8.96;87.74;98543.84;1430272;90;21384;-80
2022/04/08 03:25:49;;;;;;;12.43;7.00;;;;;;;8.96;87.56;98535.92;1426019;89;21361;-81
2022/04/08 03:28:16;;;;;;;17.33;8.43;;;;;;;8.97;87.42;98545.46;1436484;89;21450;-81
2022/04/08 03:30:42;;;;;;;10.30;7.40;;;;;;;8.98;87.28;98549.25;1447374;90;21413;-83
2022/04/08 03:33:18;;;;;;;12.03;8.23;;;;;;;8.97;87.03;98556.83;1433056;89;21502;-82
2022/04/08 03:35:45;;;;;;;13.43;8.63;;;;;;;8.97;86.91;98584.53;1434184;90;22056;-82
2022/04/08 03:38:12;;;;;;;12.60;8.87;;;;;;;8.96;86.85;98577.63;1442776;90;21354;-81
2022/04/08 03:40:39;;;;;;;13.93;7.67;;;;;;;8.97;86.77;98585.05;1440916;90;21503;-81
2022/04/08 03:43:06;;;;;;;17.63;8.30;;;;;;;8.95;86.79;98594.98;1428220;90;22410;-82
2022/04/08 03:45:33;;;;;;;10.27;7.17;;;;;;;8.94;86.52;98599.41;1440891;90;21450;-80
2022/04/08 03:48:00;;;;;;;10.60;7.37;;;;;;;8.95;86.26;98602.39;1420884;90;21362;-81
2022/04/08 03:50:26;;;;;;;10.87;7.37;;;;;;;8.96;85.84;98597.42;1435291;90;21414;-81
2022/04/08 03:52:54;;;;;;;9.53;6.50;;;;;;;8.96;85.15;98598.74;1437030;90;21443;-82
2022/04/08 03:55:21;;;;;;;8.73;6.57;;;;;;;8.98;85.00;98604.66;1429636;90;21361;-82
2022/04/08 03:57:48;;;;;;;14.33;8.43;;;;;;;8.99;84.38;98602.33;1449372;90;21502;-83
2022/04/08 04:00:16;;;;;;;9.67;6.70;;;;;;;9.00;84.14;98617.16;1440344;90;21340;-82
2022/04/08 04:02:43;;;;;;;11.73;7.47;;;;;;;9.05;83.93;98617.94;1440733;90;21421;-83
2022/04/08 04:05:11;;;;;;;11.93;7.43;;;;;;;9.07;83.35;98623.05;1446537;90;21362;-82
2022/04/08 04:07:38;;;;;;;14.63;7.40;;;;;;;9.10;83.23;98624.00;1439558;90;21383;-81
2022/04/08 04:10:06;;;;;;;9.23;6.70;;;;;;;9.09;82.68;98622.34;1435475;90;23057;-80
2022/04/08 04:12:33;;;;;;;15.70;7.77;;;;;;;9.12;82.44;98641.77;1416770;90;21340;-80
2022/04/08 04:15:02;;;;;;;15.40;7.43;;;;;;;9.15;82.08;98646.69;1422997;90;21470;-81
2022/04/08 04:17:29;;;;;;;14.73;6.90;;;;;;;9.19;81.79;98661.18;1433309;90;21414;-82
2022/04/08 04:19:56;;;;;;;8.93;6.87;;;;;;;9.20;81.30;98673.36;1437135;90;21412;-81
2022/04/08 04:22:23;;;;;;;15.53;7.73;;;;;;;9.22;81.10;98674.83;1438808;90;21383;-80
2022/04/08 04:24:49;;;;;;;8.80;6.83;;;;;;;9.24;80.50;98693.14;1421727;90;21361;-83
2022/04/08 04:27:17;;;;;;;11.63;8.17;;;;;;;9.27;80.30;98703.33;1424653;90;21309;-82
2022/04/08 04:29:43;;;;;;;9.40;6.97;;;;;;;9.30;79.92;98702.97;1449362;90;21325;-82
2022/04/08 04:32:10;;;;;;;9.27;6.47;;;;;;;9.31;79.69;98707.23;1425677;90;22419;-82
2022/04/08 04:34:38;;;;;;;7.63;6.20;;;;;;;9.31;79.72;98694.03;1421217;90;21576;-82
2022/04/08 04:37:08;;;;;;;12.90;7.43;;;;;;;9.31;79.45;98692.72;1439874;90;21406;-81
2022/04/08 04:39:35;;;;;;;13.50;6.57;;;;;;;9.34;79.53;98681.79;1433738;90;21442;-80
2022/04/08 04:42:03;;;;;;;12.13;6.90;;;;;;;9.31;79.47;98683.47;1429810;90;21465;-78
2022/04/08 04:44:30;;;;;;;15.30;7.70;;;;;;;9.35;79.60;98707.69;1422712;90;21472;-79
2022/04/08 04:46:57;;;;;;;8.63;6.83;;;;;;;9.34;79.53;98721.89;1430702;90;21333;-80
2022/04/08 04:49:24;;;;;;;9.47;6.30;;;;;;;9.34;79.33;98720.06;1434966;90;23462;-80
2022/04/08 04:51:51;;;;;;;9.10;5.53;;;;;;;9.35;79.40;98724.37;1437826;90;21347;-80
2022/04/08 04:54:21;;;;;;;8.97;6.17;;;;;;;9.37;79.45;98731.59;1446213;90;22500;-80
2022/04/08 04:56:48;;;;;;;8.43;6.50;;;;;;;9.37;79.50;98730.27;1436045;90;21697;-80
2022/04/08 04:59:15;;;;;;;8.53;6.70;;;;;;;9.34;79.56;98731.95;1437243;90;21347;-79
2022/04/08 05:01:42;;;;;;;9.20;7.50;;;;;;;9.34;79.71;98741.19;1424792;90;21405;-79
2022/04/08 05:04:08;;;;;;;13.30;6.93;;;;;;;9.32;79.80;98747.17;1441968;90;21215;-84
2022/04/08 05:06:35;;;;;;;11.77;7.30;;;;;;;9.34;79.67;98752.25;1430552;90;21354;-82
2022/04/08 05:09:05;;;;;;;16.63;8.00;;;;;;;9.35;79.60;98757.38;1418865;91;22398;-82
2022/04/08 05:11:33;;;;;;;10.57;7.13;;;;;;;9.35;79.59;98756.05;1435053;90;22216;-80
2022/04/08 05:14:00;;;;;;;11.00;6.67;;;;;;;9.33;79.56;98773.07;1422169;90;21466;-81
2022/04/08 05:16:28;;;;;;;13.47;7.03;;;;;;;9.33;79.61;98787.09;1421223;90;21425;-80
2022/04/08 05:18:56;;;;;;;11.53;6.93;;;;;;;9.34;79.60;98781.30;1424109;90;21320;-80
2022/04/08 05:21:23;;;;;;;14.60;7.97;;;;;;;9.33;79.70;98793.69;1432558;91;21605;-80
2022/04/08 05:23:53;;;;;;;11.80;6.10;;;;;;;9.33;79.73;98793.69;1420846;90;21331;-80
2022/04/08 05:26:20;;;;;;;11.17;7.70;;;;;;;9.33;79.68;98799.47;1425035;90;21350;-81
2022/04/08 05:28:47;;;;;;;11.50;7.37;;;;;;;9.28;79.84;98803.95;1421956;90;21431;-81
2022/04/08 05:31:15;;;;;;;10.47;6.90;;;;;;;9.31;79.71;98790.39;1420085;91;22384;-81
2022/04/08 05:33:42;;;;;;;11.47;7.40;;;;;;;9.29;79.91;98806.09;1428375;90;21567;-81
2022/04/08 05:36:09;;;;;;;12.67;7.87;;;;;;;9.30;80.53;98798.01;1424746;91;21478;-81
2022/04/08 05:38:37;;;;;;;14.73;8.67;;;;;;;9.27;81.25;98790.45;1421353;90;22532;-81
2022/04/08 05:41:04;;;;;;;11.63;7.87;;;;;;;9.26;81.52;98774.27;1420997;89;22517;-81
2022/04/08 05:43:31;;;;;;;13.73;8.13;;;;;;;9.21;82.65;98789.84;1422962;91;21686;-83
2022/04/08 05:45:58;;;;;;;14.27;7.90;;;;;;;9.17;83.46;98809.66;1426463;90;22373;-81
2022/04/08 05:48:25;;;;;;;8.53;5.87;;;;;;;9.17;83.96;98807.02;1397185;93;21405;-83
2022/04/08 05:50:52;;;;;;;10.57;8.00;;;;;;;9.15;83.36;98764.98;1415863;91;21390;-82
2022/04/08 05:53:19;;;;;;;8.13;5.87;;;;;;;9.18;85.23;98703.10;1430180;91;21353;-82
2022/04/08 05:55:47;;;;;;;10.10;6.47;;;;;;;9.16;84.96;98728.34;1425235;91;21441;-81
2022/04/08 05:58:14;;;;;;;10.63;5.63;;;;;;;9.16;85.03;98753.42;1428350;91;21427;-82
2022/04/08 06:00:41;;;;;;;8.30;6.10;;;;;;;9.16;85.27;98789.55;1433632;91;21331;-81
2022/04/08 06:03:08;;;;;;;8.60;6.43;;;;;;;9.20;85.01;98790.31;1428832;91;21369;-82
2022/04/08 06:05:35;;;;;;;11.17;7.63;;;;;;;9.22;85.67;98790.16;1428899;91;21362;-81
2022/04/08 06:08:04;;;;;;;10.03;6.63;;;;;;;9.23;85.55;98801.84;1428625;91;22449;-82
2022/04/08 06:10:31;;;;;;;10.50;7.10;;;;;;;9.23;85.47;98798.39;1427891;91;22353;-81
2022/04/08 06:12:58;;;;;;;12.63;7.03;;;;;;;9.21;85.85;98825.48;1426885;91;22603;-84
2022/04/08 06:15:26;;;;;;;10.67;7.40;;;;;;;9.22;85.74;98836.35;1418094;91;21362;-81
2022/04/08 06:17:55;;;;;;;10.27;7.13;;;;;;;9.22;85.56;98827.92;1427204;90;21933;-81
2022/04/08 06:20:22;;;;;;;13.17;7.80;;;;;;;9.25;85.72;98833.35;1356936;90;21341;-81
2022/04/08 06:22:50;;;;;;;12.10;8.00;;;;;;;9.27;85.34;98832.69;1357952;90;22191;-81
2022/04/08 06:25:22;;;;;;;14.30;8.93;;;;;;;9.26;85.40;98826.59;1425565;90;21555;-81
2022/04/08 06:28:05;;;;;;;17.97;10.23;;;;;;;9.29;85.29;98825.38;1430847;90;21340;-81
2022/04/08 06:30:32;;;;;;;13.13;7.87;;;;;;;9.28;85.48;98841.42;1430833;90;21503;-81
2022/04/08 06:32:59;;;;;;;12.67;7.73;;;;;;;9.30;85.44;98834.16;1425571;90;21399;-82
2022/04/08 06:35:26;;;;;;;11.83;8.63;;;;;;;9.31;84.60;98843.70;1445962;89;22473;-82
2022/04/08 06:38:06;;;;;;;14.53;8.17;;;;;;;9.34;84.64;98832.78;1452623;89;22336;-82
2022/04/08 06:40:42;;;;;;;10.40;7.40;;;;;;;9.40;84.22;98834.20;1444427;89;21346;-78
2022/04/08 06:43:08;;;;;;;12.07;7.77;;;;;;;9.43;83.97;98840.44;1450287;89;21378;-82
2022/04/08 06:45:36;;;;;;;12.20;7.80;;;;;;;9.46;83.33;98852.47;1444975;90;21627;-82
2022/04/08 06:48:03;;;;;;;16.57;7.87;;;;;;;9.52;83.40;98853.58;1442735;90;22266;-79
2022/04/08 06:50:31;;;;;;;10.97;8.00;;;;;;;9.60;82.97;98858.79;1437953;90;21363;-82
2022/04/08 06:53:00;;;;;;;10.87;7.23;;;;;;;9.72;82.62;98850.73;1433066;90;22340;-80
2022/04/08 06:55:30;;;;;;;14.33;8.27;;;;;;;9.83;81.79;98860.87;1421474;91;21511;-81
2022/04/08 06:58:02;;;;;;;20.92;9.58;;;;;;;9.96;81.34;98859.44;1427753;91;21301;-81
2022/04/08 07:00:33;;;;;;;13.50;7.27;;;;;;;10.05;80.10;98855.70;1421350;91;21545;-81
2022/04/08 07:03:00;;;;;;;12.63;7.17;;;;;;;10.15;80.07;98846.97;1426135;91;22380;-80
2022/04/08 07:05:28;;;;;;;6.50;4.87;;;;;;;10.31;79.44;98846.81;1435790;91;21473;-81
2022/04/08 07:07:56;;;;;;;9.80;6.97;;;;;;;10.45;77.06;98864.19;1420462;91;21419;-82
2022/04/08 07:10:23;;;;;;;7.97;6.40;;;;;;;10.63;77.11;98869.07;1403883;92;21323;-86
2022/04/08 07:12:50;;;;;;;7.20;5.63;;;;;;;10.76;75.84;98877.14;1398010;92;22292;-82
2022/04/08 07:15:17;;;;;;;6.67;5.83;;;;;;;10.85;75.68;98869.43;1406392;92;21329;-81
2022/04/08 07:17:44;;;;;;;10.77;6.27;;;;;;;10.98;75.16;98874.84;1417856;92;21411;-82
2022/04/08 07:20:13;;;;;;;8.63;5.17;;;;;;;11.10;74.87;98874.34;1412292;92;21433;-82
2022/04/08 07:22:45;;;;;;;10.90;6.17;;;;;;;11.23;72.63;98876.62;1409611;92;21463;-82
2022/04/08 07:25:11;;;;;;;7.80;5.20;;;;;;;11.35;72.74;98873.47;1412427;92;22403;-81
2022/04/08 07:27:55;;;;;;;10.90;6.03;;;;;;;11.52;71.05;98881.46;1412938;92;21308;-81
2022/04/08 07:30:23;;;;;;;6.80;5.40;;;;;;;11.74;70.67;98894.19;1408479;92;22365;-82
2022/04/08 07:32:55;;;;;;;7.87;5.10;;;;;;;12.01;68.82;98879.30;1401971;92;21403;-82
2022/04/08 07:35:23;;;;;;;6.80;5.50;;;;;;;12.14;65.84;98880.72;1409304;92;22454;-82
2022/04/08 07:37:51;;;;;;;6.75;4.75;;;;;;;12.24;65.46;98891.47;1405482;92;21522;-84
2022/04/08 07:40:19;;;;;;;7.60;4.97;;;;;;;12.25;64.23;98899.73;1404264;92;21549;-82
2022/04/08 07:42:46;;;;;;;8.63;4.77;;;;;;;12.27;64.48;98899.85;1409404;92;22335;-81
2022/04/08 07:45:13;;;;;;;6.93;4.80;;;;;;;12.37;65.46;98898.16;1402124;92;21396;-81
2022/04/08 07:47:41;;;;;;;8.53;4.40;;;;;;;12.49;65.30;98891.81;1410285;93;23356;-82
2022/04/08 07:50:12;;;;;;;6.97;4.67;;;;;;;12.67;62.97;98893.41;1402549;92;21374;-82
2022/04/08 07:52:40;;;;;;;8.10;4.50;;;;;;;12.83;63.48;98901.03;1412972;91;21560;-83
2022/04/08 07:55:08;;;;;;;5.67;4.10;;;;;;;12.94;60.88;98901.45;1415511;91;21474;-82
2022/04/08 07:57:50;;;;;;;4.70;3.43;;;;;;;13.00;60.79;98909.94;1405865;92;22432;-82
2022/04/08 08:00:21;;;;;;;7.20;3.73;;;;;;;13.08;61.17;98914.56;1417582;92;21581;-83
2022/04/08 08:02:49;;;;;;;5.90;2.80;;;;;;;13.11;59.89;98923.97;1415694;92;21398;-83
2022/04/08 08:05:18;;;;;;;8.30;3.37;;;;;;;13.15;59.47;98936.33;1411371;92;21391;-82
2022/04/08 08:07:50;;;;;;;6.13;3.60;;;;;;;13.24;59.38;98925.86;1409007;92;21405;-82
2022/04/08 08:10:32;;;;;;;8.37;4.13;;;;;;;13.35;59.74;98943.05;1409586;92;21361;-82
2022/04/08 08:13:01;;;;;;;6.83;4.57;;;;;;;13.37;58.66;98948.48;1414547;92;21999;-81
2022/04/08 08:15:30;;;;;;;9.30;4.13;;;;;;;13.36;58.17;98934.09;1409793;92;21420;-82
2022/04/08 08:17:57;;;;;;;6.07;3.33;;;;;;;13.37;58.23;98938.37;1412949;92;21516;-82
2022/04/08 08:20:26;;;;;;;5.97;3.63;;;;;;;13.39;58.45;98958.92;1412242;92;21376;-82
2022/04/08 08:22:53;;;;;;;7.80;3.77;;;;;;;13.54;58.04;98954.23;1413895;92;21450;-82
2022/04/08 08:25:21;;;;;;;5.17;3.50;;;;;;;13.69;58.24;98951.38;1413768;92;22263;-83
2022/04/08 08:27:59;;;;;;;7.10;2.80;;;;;;;13.72;56.91;98956.29;1414385;92;21382;-82
2022/04/08 08:30:29;;;;;;;6.40;2.80;;;;;;;13.72;55.19;98954.97;1413228;92;21412;-83
2022/04/08 08:32:58;;;;;;;3.62;2.40;;;;;;;13.77;54.51;98963.97;1406208;92;21390;-85
2022/04/08 08:35:26;;;;;;;7.70;3.00;;;;;;;14.11;54.94;98962.64;1412838;92;22321;-85
2022/04/08 08:37:53;;;;;;;6.67;2.87;;;;;;;14.17;53.81;98957.83;1407121;92;21604;-85
2022/04/08 08:40:21;;;;;;;4.97;2.77;;;;;;;14.24;53.41;98955.96;1404305;93;21353;-82
2022/04/08 08:42:48;;;;;;;6.63;2.73;;;;;;;14.61;53.85;98949.15;1403320;93;22321;-83
2022/04/08 08:45:17;;;;;;;4.30;2.40;;;;;;;14.99;51.12;98956.89;1404981;93;21508;-83
2022/04/08 08:47:48;;;;;;;4.10;2.43;;;;;;;15.10;49.53;98958.41;1401868;93;21427;-85
2022/04/08 08:50:17;;;;;;;7.90;2.47;;;;;;;15.24;50.24;98953.80;1398312;94;23303;-83
2022/04/08 08:52:50;;;;;;;3.20;2.00;;;;;;;15.40;50.60;98959.67;1416773;91;21382;-86
2022/04/08 08:55:20;;;;;;;4.10;1.90;;;;;;;15.40;45.99;98957.02;1407024;92;21516;-84
2022/04/08 08:57:49;;;;;;;6.40;2.17;;;;;;;15.47;47.91;98956.44;1426502;92;21457;-83
2022/04/08 09:00:19;;;;;;;6.07;2.57;;;;;;;15.51;47.54;98968.33;1412400;92;21368;-83
2022/04/08 09:02:48;;;;;;;7.33;2.70;;;;;;;15.60;47.86;98967.03;1416896;92;21508;-84
2022/04/08 09:05:21;;;;;;;8.17;1.80;;;;;;;15.70;47.19;98964.71;1419715;92;22160;-85
2022/04/08 09:07:54;;;;;;;3.07;1.50;;;;;;;15.78;46.50;98964.45;1416782;92;21479;-84
2022/04/08 09:10:35;;;;;;;3.33;1.30;;;;;;;15.86;44.23;98970.05;1418864;92;21405;-84
2022/04/08 09:13:04;;;;;;;3.02;1.32;;;;;;;15.90;43.06;98979.76;1420490;92;21427;-84
2022/04/08 09:15:39;;;;;;;2.83;1.47;;;;;;;15.74;38.53;98978.45;1413981;92;21546;-84
2022/04/08 09:18:14;;;;;;;11.07;1.77;;;;;;;15.76;40.07;98990.52;1395244;93;21478;-84
2022/04/08 09:20:50;;;;;;;5.93;1.37;;;;;;;15.78;39.98;98988.45;1421074;92;21435;-85
2022/04/08 09:23:19;;;;;;;3.40;1.10;;;;;;;15.83;39.11;99001.16;1421590;92;21427;-84
2022/04/08 09:25:51;;;;;;;3.53;1.10;;;;;;;15.85;37.97;99004.93;1423154;92;21471;-84
2022/04/08 09:28:18;;;;;;;9.23;2.00;;;;;;;15.95;40.36;99005.28;1415937;92;21670;-84
2022/04/08 09:30:52;;;;;;;2.10;1.20;;;;;;;15.99;39.83;99019.81;1415699;92;22285;-86
2022/04/08 09:33:21;;;;;;;8.27;1.20;;;;;;;15.89;36.80;99001.63;1398856;93;21398;-85
2022/04/08 09:35:50;;;;;;;5.27;1.67;;;;;;;15.89;39.70;98997.63;1420718;92;22480;-85
2022/04/08 09:38:21;;;;;;;12.70;2.27;;;;;;;15.88;42.75;98989.82;1423775;92;22719;-84
2022/04/08 09:40:48;;;;;;;3.67;2.03;;;;;;;15.82;44.36;98992.03;1408780;92;22441;-85
2022/04/08 09:43:17;;;;;;;6.43;1.83;;;;;;;15.90;44.22;99011.77;1411239;92;21535;-84
2022/04/08 09:45:45;;;;;;;3.67;1.50;;;;;;;15.92;45.08;99016.39;1409159;92;21420;-84
2022/04/08 09:48:12;;;;;;;11.27;2.77;;;;;;;15.86;41.24;99004.73;1411946;92;21564;-84
2022/04/08 09:50:40;;;;;;;3.80;1.63;;;;;;;15.98;43.45;99014.18;1414871;92;22499;-85
2022/04/08 09:53:09;;;;;;;5.63;1.90;;;;;;;16.30;41.10;99015.46;1413271;92;21397;-84
2022/04/08 09:55:37;;;;;;;3.93;1.60;;;;;;;16.38;37.22;99016.00;1409594;92;21413;-84
2022/04/08 09:58:08;;;;;;;3.03;1.50;;;;;;;16.43;38.37;99005.48;1409104;92;21390;-84
2022/04/08 10:00:35;;;;;;;6.75;1.30;;;;;;;16.46;36.47;99004.23;1417164;92;21457;-84
2022/04/08 10:03:03;;;;;;;4.60;1.10;;;;;;;16.38;34.87;99012.52;1415186;92;21469;-85
2022/04/08 10:05:30;;;;;;;3.17;1.17;;;;;;;16.26;35.23;99016.95;1414582;92;23352;-84
2022/04/08 10:07:59;;;;;;;2.47;0.93;;;;;;;16.19;35.75;99023.13;1410548;92;21398;-85
2022/04/08 10:10:40;;;;;;;1.40;0.90;;;;;;;16.19;34.20;99007.12;1406166;92;21375;-84
2022/04/08 10:13:39;;;;;;;8.10;1.50;;;;;;;16.21;34.12;98997.05;1406048;92;21383;-84
2022/04/08 10:16:20;;;;;;;9.20;2.15;;;;;;;16.35;34.53;99016.44;1412036;92;21493;-84
2022/04/08 10:18:50;;;;;;;7.03;1.90;;;;;;;16.58;33.03;99021.15;1414461;92;21398;-83
2022/04/08 10:21:17;;;;;;;2.50;1.20;;;;;;;16.66;31.58;99027.55;1413192;92;21390;-82
2022/04/08 10:23:55;;;;;;;9.27;1.40;;;;;;;16.70;30.76;99008.69;1399155;92;21465;-83
2022/04/08 10:26:25;;;;;;;4.03;1.03;;;;;;;16.75;31.37;99009.89;1409072;92;21390;-87
2022/04/08 10:28:55;;;;;;;3.72;1.15;;;;;;;16.80;32.27;99010.05;1411232;92;21368;-86
2022/04/08 10:31:26;;;;;;;8.07;1.60;;;;;;;16.72;33.88;99011.16;1414819;92;21460;-85
2022/04/08 10:33:59;;;;;;;10.53;1.33;;;;;;;16.68;35.34;99028.64;1405584;92;22424;-86
2022/04/08 10:36:44;;;;;;;6.57;1.23;;;;;;;16.59;33.25;99006.75;1415569;92;21361;-84
2022/04/08 10:39:15;;;;;;;8.93;1.33;;;;;;;16.52;33.06;99004.67;1410952;92;22315;-85
2022/04/08 10:41:57;;;;;;;2.13;0.70;;;;;;;16.63;31.71;99001.28;1425457;92;21596;-84
2022/04/08 10:44:39;;;;;;;5.30;1.40;;;;;;;16.86;31.54;99011.83;1422134;92;21397;-83
2022/04/08 10:47:15;;;;;;;9.87;1.57;;;;;;;17.32;32.47;99010.45;1421025;92;21441;-85
2022/04/08 10:49:53;;;;;;;3.53;1.40;;;;;;;17.68;31.53;99010.08;1394968;92;21383;-89
2022/04/08 10:52:29;;;;;;;6.30;1.40;;;;;;;17.73;29.04;99010.21;1423730;92;21382;-85
2022/04/08 10:55:09;;;;;;;11.10;1.67;;;;;;;17.84;30.82;99016.65;1425240;92;21412;-85
2022/04/08 10:57:38;;;;;;;7.42;1.22;;;;;;;17.87;30.39;99032.28;1410551;92;21441;-85
2022/04/08 11:00:10;;;;;;;10.18;1.47;;;;;;;17.77;29.33;99034.13;1421824;92;21463;-87
2022/04/08 11:02:45;;;;;;;17.95;2.00;;;;;;;17.70;29.17;99015.50;1421373;92;21353;-84
2022/04/08 11:05:25;;;;;;;12.63;1.55;;;;;;;17.91;29.45;99015.52;1425536;92;22388;-88
2022/04/08 11:07:52;;;;;;;23.60;1.80;;;;;;;18.00;26.74;99011.45;1414006;92;21454;-90
2022/04/08 11:10:22;;;;;;;6.65;1.45;;;;;;;18.03;27.29;99016.88;1416965;92;21383;-89
2022/04/08 11:12:53;;;;;;;9.00;1.27;;;;;;;17.91;27.48;99015.52;1417003;92;21486;-85
2022/04/08 11:15:23;;;;;;;6.97;1.60;;;;;;;18.06;28.48;99015.59;1422946;92;21367;-88
2022/04/08 11:17:52;;;;;;;2.55;0.82;;;;;;;18.39;28.49;99015.87;1423320;92;21434;-88
2022/04/08 11:20:21;;;;;;;6.95;1.57;;;;;;;18.32;28.43;99011.66;1421947;92;21426;-86
2022/04/08 11:22:52;;;;;;;3.60;1.10;;;;;;;18.35;29.15;99016.02;1419498;92;21448;-89
2022/04/08 11:25:24;;;;;;;;;;;;;;;18.48;28.46;99009.11;1420591;92;21456;-89
2022/04/08 11:28:02;;;;;;;11.70;1.45;;;;;;;18.63;28.09;99019.88;1421981;92;20357;-92
2022/04/08 11:30:31;;;;;;;6.10;1.90;;;;;;;18.97;28.12;99019.56;1420698;92;22312;-92
2022/04/08 11:33:00;;;;;;;11.33;2.27;;;;;;;19.32;26.63;99002.56;1424822;92;22639;-93
2022/04/08 11:35:29;;;;;;;7.70;1.65;;;;;;;19.60;25.30;99003.08;1419704;92;21390;-86
2022/04/08 11:37:56;;;;;;;22.85;2.60;;;;;;;19.84;23.26;98999.23;1418683;92;21418;-83
2022/04/08 11:40:23;;;;;;;14.28;2.90;;;;;;;19.88;24.65;98998.23;1415535;92;21523;-84
2022/04/08 11:42:50;;;;;;;14.83;2.02;;;;;;;19.70;22.29;98988.52;1414376;92;21397;-83